createdAt,value
2023-02-15T00:02:07.466Z,27.85
2023-02-15T00:05:23.981Z,27.55
2023-02-15T00:08:40.668Z,25.88
2023-02-15T00:11:56.920Z,26.45
2023-02-15T00:15:14.795Z,27.33
2023-02-15T00:18:31.044Z,24.85
2023-02-15T00:21:48.640Z,24.85
2023-02-15T00:25:05.682Z,30.13
2023-02-15T00:28:23.712Z,30.75
2023-02-15T00:31:41.382Z,27.60
2023-02-15T00:34:57.550Z,28.78
2023-02-15T00:38:14.386Z,29.55
2023-02-15T00:41:30.646Z,33.38
2023-02-15T00:44:46.813Z,33.53
2023-02-15T00:48:03.018Z,29.73
2023-02-15T00:51:19.224Z,33.93
2023-02-15T00:54:36.336Z,30.15
2023-02-15T00:57:53.326Z,27.33
2023-02-15T01:01:19.506Z,29.83
2023-02-15T01:04:35.786Z,29.48
2023-02-15T01:07:54.409Z,28.05
2023-02-15T01:11:14.491Z,29.13
2023-02-15T01:14:30.862Z,29.45
2023-02-15T01:17:49.055Z,29.45
2023-02-15T01:21:05.302Z,30.30
2023-02-15T01:24:24.091Z,27.25
2023-02-15T01:27:40.243Z,27.50
2023-02-15T01:30:56.760Z,26.58
2023-02-15T01:34:13.136Z,24.85
2023-02-15T01:37:29.386Z,26.48
2023-02-15T01:40:45.856Z,27.38
2023-02-15T01:44:04.695Z,25.20
2023-02-15T01:47:24.676Z,26.08
2023-02-15T01:50:47.073Z,23.18
2023-02-15T01:54:07.975Z,24.00
2023-02-15T01:57:29.263Z,24.93
2023-02-15T02:00:46.480Z,24.10
2023-02-15T02:04:09.521Z,27.73
2023-02-15T02:07:29.638Z,29.08
2023-02-15T02:10:47.688Z,28.38
2023-02-15T02:14:04.971Z,29.10
2023-02-15T02:17:27.842Z,30.35
2023-02-15T02:21:35.378Z,29.03
2023-02-15T02:25:28.949Z,31.78
2023-02-15T02:29:18.638Z,32.18
2023-02-15T02:33:01.475Z,29.80
2023-02-15T02:36:28.843Z,27.83
2023-02-15T02:39:50.671Z,29.05
2023-02-15T02:43:12.687Z,30.43
2023-02-15T02:46:33.636Z,27.23
2023-02-15T02:49:52.404Z,28.98
2023-02-15T02:53:09.622Z,32.50
2023-02-15T02:56:31.166Z,30.25
2023-02-15T02:59:50.898Z,26.30
2023-02-15T03:03:13.358Z,28.90
2023-02-15T03:06:34.160Z,29.68
2023-02-15T03:09:54.800Z,29.73
2023-02-15T03:13:11.467Z,32.40
2023-02-15T03:16:32.278Z,31.30
2023-02-15T03:19:51.908Z,32.60
2023-02-15T03:26:26.158Z,30.98
2023-02-15T03:29:43.883Z,35.13
2023-02-15T03:33:01.803Z,34.15
2023-02-15T03:36:22.829Z,35.20
2023-02-15T03:39:44.638Z,31.63
2023-02-15T03:43:06.586Z,30.25
2023-02-15T03:46:30.498Z,29.40
2023-02-15T03:49:54.094Z,30.38
2023-02-15T03:53:15.840Z,28.38
2023-02-15T03:56:32.970Z,30.60
2023-02-15T04:00:03.251Z,33.35
2023-02-15T04:03:39.575Z,38.60
2023-02-15T04:06:55.906Z,36.55
2023-02-15T04:10:28.104Z,31.43
2023-02-15T04:13:44.510Z,32.20
2023-02-15T04:17:03.345Z,32.75
2023-02-15T04:20:34.787Z,32.30
2023-02-15T04:24:04.935Z,31.48
2023-02-15T04:27:21.064Z,34.85
2023-02-15T04:30:38.709Z,37.03
2023-02-15T04:33:54.903Z,35.48
2023-02-15T04:37:11.396Z,36.13
2023-02-15T04:40:28.377Z,39.80
2023-02-15T04:43:44.578Z,40.23
2023-02-15T04:47:03.329Z,40.28
2023-02-15T04:50:20.757Z,38.68
2023-02-15T04:53:36.971Z,39.33
2023-02-15T04:56:53.234Z,41.78
2023-02-15T05:00:10.302Z,41.78
2023-02-15T05:03:26.737Z,38.50
2023-02-15T05:06:42.914Z,38.85
2023-02-15T05:10:00.231Z,38.15
2023-02-15T05:13:16.408Z,39.30
2023-02-15T05:16:33.698Z,39.75
2023-02-15T05:19:49.894Z,43.93
2023-02-15T05:23:06.324Z,38.63
2023-02-15T05:26:40.009Z,37.33
2023-02-15T05:29:56.497Z,38.80
2023-02-15T05:33:14.838Z,40.73
2023-02-15T05:36:31.080Z,42.85
2023-02-15T05:39:47.195Z,39.13
2023-02-15T05:43:04.563Z,43.18
2023-02-15T05:46:23.235Z,40.33
2023-02-15T05:49:39.716Z,33.30
2023-02-15T05:52:56.242Z,34.28
2023-02-15T05:56:19.492Z,37.83
2023-02-15T05:59:36.211Z,40.25
2023-02-15T06:02:52.338Z,36.98
2023-02-15T06:06:12.876Z,37.95
2023-02-15T06:09:29.082Z,46.48
2023-02-15T06:12:45.426Z,34.63
2023-02-15T06:16:02.165Z,37.83
2023-02-15T06:19:18.742Z,37.53
2023-02-15T06:22:34.896Z,38.95
2023-02-15T06:25:51.279Z,34.03
2023-02-15T06:29:07.470Z,37.75
2023-02-15T06:32:24.100Z,37.35
2023-02-15T06:35:42.510Z,40.63
2023-02-15T06:38:58.738Z,40.63
2023-02-15T06:42:16.544Z,36.80
2023-02-15T06:45:43.969Z,38.28
2023-02-15T06:49:02.761Z,41.48
2023-02-15T06:52:21.376Z,34.10
2023-02-15T06:55:40.343Z,39.85
2023-02-15T06:58:56.521Z,37.43
2023-02-15T07:02:17.408Z,36.35
2023-02-15T07:05:37.929Z,36.60
2023-02-15T07:08:54.168Z,40.35
2023-02-15T07:12:24.665Z,34.48
2023-02-15T07:15:41.096Z,37.10
2023-02-15T07:18:57.974Z,34.10
2023-02-15T07:22:16.429Z,33.18
2023-02-15T07:25:32.918Z,35.77
2023-02-15T07:28:50.525Z,34.15
2023-02-15T07:32:06.703Z,31.70
2023-02-15T07:35:23.267Z,30.80
2023-02-15T07:38:44.945Z,29.98
2023-02-15T07:42:03.494Z,26.48
2023-02-15T07:45:25.505Z,26.23
2023-02-15T07:48:42.732Z,30.23
2023-02-15T07:51:59.318Z,28.83
2023-02-15T07:55:16.308Z,27.80
2023-02-15T07:58:43.892Z,27.83
2023-02-15T08:02:01.038Z,27.63
2023-02-15T08:05:19.982Z,28.43
2023-02-15T08:08:37.285Z,25.18
2023-02-15T08:11:55.638Z,27.58
2023-02-15T08:15:12.867Z,29.05
2023-02-15T08:18:28.983Z,31.85
2023-02-15T08:21:48.018Z,30.33
2023-02-15T08:25:04.569Z,32.58
2023-02-15T08:28:21.307Z,31.43
2023-02-15T08:31:42.232Z,33.18
2023-02-15T08:34:59.061Z,34.93
2023-02-15T08:38:15.393Z,32.73
2023-02-15T08:41:36.027Z,31.38
2023-02-15T08:44:53.466Z,30.95
2023-02-15T08:48:09.996Z,31.00
2023-02-15T08:51:30.486Z,29.68
2023-02-15T08:54:51.520Z,28.20
2023-02-15T08:58:17.022Z,31.48
2023-02-15T09:01:37.247Z,28.93
2023-02-15T09:04:54.597Z,28.53
2023-02-15T09:08:13.921Z,27.93
2023-02-15T09:11:33.409Z,27.48
2023-02-15T09:14:51.430Z,28.15
2023-02-15T09:18:07.863Z,32.50
2023-02-15T09:21:27.374Z,33.98
2023-02-15T09:24:46.431Z,29.43
2023-02-15T09:28:06.317Z,28.60
2023-02-15T09:31:25.947Z,33.88
2023-02-15T09:34:42.628Z,27.70
2023-02-15T09:38:01.087Z,29.68
2023-02-15T09:41:47.277Z,33.03
2023-02-15T09:45:35.513Z,32.05
2023-02-15T09:48:54.279Z,34.90
2023-02-15T09:52:44.102Z,35.03
2023-02-15T09:56:06.879Z,33.18
2023-02-15T09:59:31.661Z,34.48
2023-02-15T10:03:13.752Z,37.85
2023-02-15T10:06:49.677Z,41.13
2023-02-15T10:10:20.507Z,35.68
2023-02-15T10:13:43.726Z,33.20
2023-02-15T10:17:08.508Z,35.73
2023-02-15T10:20:33.471Z,35.35
2023-02-15T10:24:09.963Z,35.98
2023-02-15T10:27:29.053Z,37.95
2023-02-15T10:30:53.580Z,34.40
2023-02-15T10:34:26.798Z,35.15
2023-02-15T10:38:13.899Z,32.78
2023-02-15T10:41:42.997Z,32.23
2023-02-15T10:45:13.244Z,33.58
2023-02-15T10:48:54.862Z,38.78
2023-02-15T10:52:34.378Z,37.00
2023-02-15T10:56:01.473Z,36.65
2023-02-15T10:59:41.691Z,35.33
2023-02-15T11:03:22.380Z,33.43
2023-02-15T11:06:43.296Z,40.28
2023-02-15T11:10:05.549Z,32.90
2023-02-15T11:13:26.603Z,33.38
2023-02-15T11:16:47.514Z,36.70
2023-02-15T11:20:11.902Z,38.83
2023-02-15T11:23:29.626Z,32.95
2023-02-15T11:26:50.219Z,32.50
2023-02-15T11:30:13.490Z,33.75
2023-02-15T11:33:34.122Z,32.88
2023-02-15T11:36:52.502Z,31.48
2023-02-15T11:40:15.990Z,34.83
2023-02-15T11:43:36.740Z,34.98
2023-02-15T11:47:11.421Z,33.10
2023-02-15T11:50:38.756Z,39.90
2023-02-15T11:53:57.199Z,34.83
2023-02-15T11:57:22.362Z,35.85
2023-02-15T12:00:44.639Z,36.60
2023-02-15T12:04:04.677Z,32.30
2023-02-15T12:07:29.379Z,34.20
2023-02-15T12:10:51.806Z,34.80
2023-02-15T12:14:11.850Z,30.25
2023-02-15T12:17:34.605Z,36.20
2023-02-15T12:20:52.013Z,35.53
2023-02-15T12:24:19.087Z,35.18
2023-02-15T12:27:40.062Z,33.53
2023-02-15T12:31:01.751Z,34.23
2023-02-15T12:34:26.565Z,35.05
2023-02-15T12:37:42.883Z,35.45
2023-02-15T12:41:08.542Z,39.50
2023-02-15T12:44:30.827Z,34.00
2023-02-15T12:47:47.496Z,37.08
2023-02-15T12:51:14.331Z,36.30
2023-02-15T12:54:50.274Z,33.60
2023-02-15T12:58:27.085Z,34.88
2023-02-15T13:01:47.804Z,37.63
2023-02-15T13:05:09.137Z,34.95
2023-02-15T13:08:34.593Z,35.20
2023-02-15T13:11:58.009Z,33.13
2023-02-15T13:15:36.964Z,38.38
2023-02-15T13:18:59.902Z,34.48
2023-02-15T13:22:23.549Z,37.78
2023-02-15T13:25:45.914Z,35.83
2023-02-15T13:29:11.163Z,33.48
2023-02-15T13:32:38.044Z,35.45
2023-02-15T13:36:10.545Z,36.30
2023-02-15T13:39:41.362Z,31.95
2023-02-15T13:47:18.619Z,33.93
2023-02-15T13:50:59.686Z,35.85
2023-02-15T13:54:47.168Z,35.95
2023-02-15T13:58:40.279Z,35.93
2023-02-15T14:02:10.084Z,32.88
2023-02-15T14:06:02.312Z,35.20
